Time;durP1;ratioP1;P1;durP2;ratioP2;P2;SDS_P1;SDS_P2;PMS_P1;PMS_P2;Temp;Humidity;BMP_temperature;BMP_pressure;BME280_temperature;BME280_humidity;BME280_pressure;Samples;Min_cycle;Max_cycle;Signal;HPM_P1;HPM_P2
2022/03/02 00:00:00;;;;;;;33.60;15.93;;;;;;;18.00;33.32;102769.59;5105550;27;20029;-76
2022/03/02 00:02:25;;;;;;;37.13;15.87;;;;;;;18.21;32.89;102759.66;5102153;27;20019;-75
2022/03/02 00:04:50;;;;;;;39.40;16.43;;;;;;;18.51;32.46;102762.81;5123982;27;20027;-75
2022/03/02 00:07:16;;;;;;;37.50;16.93;;;;;;;18.46;32.54;102774.34;5110085;27;20031;-74
2022/03/02 00:09:41;;;;;;;39.63;17.43;;;;;;;18.79;31.72;102764.22;5112486;27;20027;-75
2022/03/02 00:12:07;;;;;;;39.77;16.87;;;;;;;18.42;32.63;102762.06;5105587;27;20026;-75
2022/03/02 00:14:32;;;;;;;41.13;17.97;;;;;;;18.71;32.41;102763.44;5107055;27;20031;-76
2022/03/02 00:16:58;;;;;;;38.67;16.53;;;;;;;18.79;32.37;102764.22;5106843;27;20100;-75
2022/03/02 00:19:23;;;;;;;44.60;18.27;;;;;;;18.51;32.45;102758.41;5129372;27;20038;-75
2022/03/02 00:21:49;;;;;;;35.70;16.93;;;;;;;18.31;32.52;102766.56;5108914;27;20127;-76
2022/03/02 00:24:14;;;;;;;37.80;18.00;;;;;;;18.31;32.87;102762.19;5111145;27;20027;-75
2022/03/02 00:26:40;;;;;;;41.50;17.90;;;;;;;17.32;34.87;102756.94;5111581;27;20019;-75
2022/03/02 00:29:05;;;;;;;36.30;16.80;;;;;;;18.47;33.11;102757.53;5107307;27;20023;-76
2022/03/02 00:31:31;;;;;;;39.20;17.30;;;;;;;18.35;32.92;102751.53;5109655;27;20023;-75
2022/03/02 00:33:57;;;;;;;40.90;16.10;;;;;;;17.62;33.94;102757.56;5109764;27;20019;-75
2022/03/02 00:36:23;;;;;;;30.10;14.90;;;;;;;18.31;33.06;102756.00;5109290;27;20855;-75
2022/03/02 00:38:48;;;;;;;35.30;16.80;;;;;;;17.85;33.92;102759.13;5108195;27;20035;-75
2022/03/02 00:41:13;;;;;;;36.17;16.83;;;;;;;18.30;33.31;102759.56;5127602;27;20030;-75
2022/03/02 00:43:39;;;;;;;40.53;16.37;;;;;;;18.22;32.61;102762.28;5110432;27;20037;-75
2022/03/02 00:46:04;;;;;;;36.03;17.10;;;;;;;17.67;33.69;102766.34;5110271;27;20380;-75
2022/03/02 00:48:30;;;;;;;35.30;15.77;;;;;;;18.90;32.17;102772.00;5111182;27;20146;-75
2022/03/02 00:50:56;;;;;;;37.90;16.50;;;;;;;18.54;32.56;102758.34;5107140;27;20029;-76
2022/03/02 00:53:21;;;;;;;35.40;16.73;;;;;;;18.14;33.06;102754.41;5108773;27;20031;-75
2022/03/02 00:55:46;;;;;;;37.07;17.40;;;;;;;17.51;33.93;102754.16;5111624;27;20038;-75
2022/03/02 00:58:12;;;;;;;33.37;15.77;;;;;;;18.70;32.29;102748.44;5109066;27;20599;-75
2022/03/02 01:00:38;;;;;;;33.30;15.87;;;;;;;18.84;31.53;102744.72;5110786;27;20011;-75
2022/03/02 01:03:06;;;;;;;35.27;16.53;;;;;;;19.43;31.22;102753.53;5110164;27;20363;-75
2022/03/02 01:05:32;;;;;;;33.33;15.53;;;;;;;18.40;32.47;102745.28;5110493;27;20031;-75
2022/03/02 01:07:57;;;;;;;35.80;17.60;;;;;;;19.05;31.17;102732.94;5110692;28;20557;-76
2022/03/02 01:10:23;;;;;;;31.83;15.43;;;;;;;19.15;31.30;102735.44;5110296;27;20609;-75
2022/03/02 01:12:48;;;;;;;33.73;16.63;;;;;;;18.90;31.35;102731.41;5109906;27;20019;-75
2022/03/02 01:15:14;;;;;;;31.90;15.87;;;;;;;18.52;32.11;102733.69;5109686;28;20056;-75
2022/03/02 01:17:40;;;;;;;34.83;15.73;;;;;;;17.93;32.95;102730.88;5110557;28;20153;-75
2022/03/02 01:20:08;;;;;;;31.80;16.23;;;;;;;18.01;32.83;102731.66;5108461;27;20382;-76
2022/03/02 01:22:34;;;;;;;31.43;15.67;;;;;;;18.55;32.30;102723.03;5108592;28;20046;-75
2022/03/02 01:25:00;;;;;;;33.70;15.93;;;;;;;18.21;32.31;102730.53;5127952;27;20031;-76
2022/03/02 01:27:25;;;;;;;32.40;16.50;;;;;;;18.79;31.35;102721.81;5102977;28;20106;-75
2022/03/02 01:29:52;;;;;;;35.73;15.70;;;;;;;18.03;32.05;102724.56;5111249;28;20030;-75
2022/03/02 01:32:18;;;;;;;38.20;15.00;;;;;;;17.67;32.82;102721.38;5109945;28;20464;-75
2022/03/02 01:34:44;;;;;;;37.77;15.97;;;;;;;17.96;32.34;102722.88;5126960;27;20042;-75
2022/03/02 01:37:10;;;;;;;31.30;14.93;;;;;;;18.04;32.35;102721.03;5110237;28;20378;-76
2022/03/02 01:39:35;;;;;;;35.50;15.63;;;;;;;18.64;31.24;102717.63;5110437;28;20015;-75
2022/03/02 01:42:02;;;;;;;30.97;15.23;;;;;;;18.15;31.63;102712.97;5127493;28;20482;-75
2022/03/02 01:44:27;;;;;;;35.70;15.90;;;;;;;18.94;30.61;102703.97;5111248;27;20023;-75
2022/03/02 01:46:53;;;;;;;32.73;15.87;;;;;;;17.94;31.78;102706.13;5114125;27;20035;-74
2022/03/02 01:49:19;;;;;;;35.07;15.63;;;;;;;17.72;32.41;102706.34;5113773;27;20030;-75
2022/03/02 01:51:44;;;;;;;30.73;15.33;;;;;;;17.67;32.07;102710.81;5113097;27;20071;-75
2022/03/02 01:54:09;;;;;;;30.63;15.40;;;;;;;17.49;32.62;102698.66;5114160;27;20481;-75
2022/03/02 01:56:35;;;;;;;28.63;14.13;;;;;;;18.04;31.78;102694.56;5114037;27;20022;-75
2022/03/02 01:59:01;;;;;;;33.50;15.33;;;;;;;17.74;31.86;102696.63;5113373;27;20443;-76
2022/03/02 02:01:27;;;;;;;30.60;14.23;;;;;;;17.52;31.95;102697.75;5112165;27;20019;-75
2022/03/02 02:03:52;;;;;;;34.30;15.20;;;;;;;17.50;32.20;102696.88;5114688;27;20500;-75
2022/03/02 02:06:18;;;;;;;30.03;14.13;;;;;;;17.55;31.96;102695.06;5131539;27;20027;-75
2022/03/02 02:08:44;;;;;;;31.07;15.67;;;;;;;17.52;31.97;102700.41;5114395;27;20027;-75
2022/03/02 02:11:13;;;;;;;31.17;15.00;;;;;;;17.40;31.93;102702.22;5132009;27;20113;-75
2022/03/02 02:13:39;;;;;;;33.80;14.40;;;;;;;17.85;30.77;102693.00;5113393;27;20019;-75
2022/03/02 02:16:05;;;;;;;35.10;15.60;;;;;;;18.26;30.40;102692.53;5112774;27;20015;-76
2022/03/02 02:18:32;;;;;;;32.43;15.10;;;;;;;17.72;31.04;102686.94;5115394;27;20023;-76
2022/03/02 02:21:08;;;;;;;32.20;14.50;;;;;;;17.67;31.48;102679.06;5111575;27;20039;-76
2022/03/02 02:23:38;;;;;;;28.63;13.27;;;;;;;17.74;31.17;102680.75;5113928;27;20023;-75
2022/03/02 02:26:07;;;;;;;32.47;15.17;;;;;;;18.04;31.09;102678.69;5110410;27;20473;-76
2022/03/02 02:28:34;;;;;;;31.77;15.03;;;;;;;18.35;30.18;102673.00;5113012;27;20053;-75
2022/03/02 02:31:01;;;;;;;32.00;14.63;;;;;;;17.85;30.71;102671.84;5113029;27;20022;-76
2022/03/02 02:33:28;;;;;;;34.07;14.83;;;;;;;17.38;31.37;102660.84;5132794;27;20054;-75
2022/03/02 02:35:53;;;;;;;31.23;14.67;;;;;;;17.93;30.79;102664.72;5131351;27;20058;-75
2022/03/02 02:38:21;;;;;;;30.23;14.33;;;;;;;17.69;31.06;102672.00;5131921;27;20554;-75
2022/03/02 02:40:49;;;;;;;31.73;15.27;;;;;;;17.56;31.35;102670.38;5113918;27;20031;-76
2022/03/02 02:43:16;;;;;;;32.60;14.83;;;;;;;17.40;31.73;102659.94;5111830;27;20075;-75
2022/03/02 02:45:41;;;;;;;34.77;16.23;;;;;;;17.45;31.91;102662.56;5114964;27;20026;-76
2022/03/02 02:48:07;;;;;;;31.50;14.67;;;;;;;17.68;30.89;102654.41;5112538;27;20019;-75
2022/03/02 02:50:34;;;;;;;29.40;14.17;;;;;;;17.54;31.70;102657.16;5112765;27;20019;-75
2022/03/02 02:53:02;;;;;;;38.13;15.77;;;;;;;17.09;32.48;102644.38;5130155;27;20080;-76
2022/03/02 02:55:29;;;;;;;32.27;15.10;;;;;;;17.67;31.38;102644.69;5113117;27;20064;-75
2022/03/02 02:57:56;;;;;;;35.30;14.93;;;;;;;17.15;32.44;102642.59;5113499;27;20451;-75
2022/03/02 03:00:25;;;;;;;34.87;16.20;;;;;;;16.82;32.83;102642.81;5113003;27;20114;-75
2022/03/02 03:02:52;;;;;;;28.60;14.43;;;;;;;16.93;33.42;102642.75;5113373;27;20050;-75
2022/03/02 03:05:22;;;;;;;36.17;15.27;;;;;;;17.56;32.21;102644.81;5113331;27;20156;-75
2022/03/02 03:07:49;;;;;;;36.73;16.07;;;;;;;17.86;31.70;102641.84;5114143;27;20079;-76
2022/03/02 03:10:16;;;;;;;36.97;16.57;;;;;;;17.29;32.36;102641.53;5112461;27;20431;-75
2022/03/02 03:12:46;;;;;;;32.73;16.33;;;;;;;16.79;33.10;102630.50;5112559;27;20083;-75
2022/03/02 03:15:13;;;;;;;35.33;15.73;;;;;;;17.50;32.36;102628.13;5113332;27;20087;-76
2022/03/02 03:17:39;;;;;;;33.23;15.93;;;;;;;16.59;33.12;102633.25;5113557;27;20026;-75
2022/03/02 03:20:08;;;;;;;34.97;16.23;;;;;;;16.81;33.04;102629.63;5111178;27;20106;-76
2022/03/02 03:22:34;;;;;;;36.43;15.20;;;;;;;17.06;32.22;102628.56;5111982;27;20154;-75
2022/03/02 03:24:59;;;;;;;42.53;15.73;;;;;;;17.53;31.83;102628.09;5111843;27;20126;-75
2022/03/02 03:27:25;;;;;;;34.50;15.60;;;;;;;17.53;31.91;102628.09;5112010;27;20019;-75
2022/03/02 03:29:50;;;;;;;34.97;15.87;;;;;;;17.33;32.05;102626.53;5111299;27;20435;-75
2022/03/02 03:32:16;;;;;;;33.60;14.63;;;;;;;17.11;32.27;102632.03;5110996;27;20071;-75
2022/03/02 03:34:42;;;;;;;32.47;16.83;;;;;;;16.72;32.94;102618.22;5114123;27;20038;-75
2022/03/02 03:37:08;;;;;;;30.60;15.20;;;;;;;17.59;31.98;102618.34;5111452;27;20027;-75
2022/03/02 03:39:33;;;;;;;35.27;15.90;;;;;;;17.25;32.35;102620.47;5130438;27;20027;-75
2022/03/02 03:41:59;;;;;;;31.80;15.33;;;;;;;17.34;32.33;102620.38;5113034;27;20019;-75
2022/03/02 03:44:24;;;;;;;34.97;16.70;;;;;;;17.45;32.06;102623.78;5112229;27;20039;-75
2022/03/02 03:46:50;;;;;;;37.60;17.70;;;;;;;17.03;32.61;102627.72;5110231;27;20047;-75
2022/03/02 03:49:16;;;;;;;31.83;15.20;;;;;;;17.37;32.24;102622.97;5106276;27;20027;-75
2022/03/02 03:51:41;;;;;;;36.87;16.07;;;;;;;16.58;33.05;102625.34;5111808;27;20440;-75
2022/03/02 03:54:08;;;;;;;36.87;15.63;;;;;;;16.95;32.54;102614.56;5108831;27;20109;-76
2022/03/02 03:56:34;;;;;;;33.53;15.33;;;;;;;17.32;32.13;102613.34;5131668;27;20073;-76
2022/03/02 03:58:59;;;;;;;38.70;16.17;;;;;;;17.38;31.73;102614.16;5130141;27;20482;-75
2022/03/02 04:01:25;;;;;;;34.23;15.87;;;;;;;17.02;32.51;102615.38;5110761;27;20022;-75
2022/03/02 04:03:51;;;;;;;35.43;16.83;;;;;;;17.01;32.46;102617.16;5112166;27;20029;-76
2022/03/02 04:06:16;;;;;;;34.20;14.30;;;;;;;16.24;33.40;102617.66;5112131;27;20035;-76
2022/03/02 04:08:42;;;;;;;31.37;15.37;;;;;;;17.04;32.67;102610.97;5111022;27;20083;-76
2022/03/02 04:11:08;;;;;;;34.27;15.30;;;;;;;17.22;32.53;102610.78;5112348;27;20030;-76
2022/03/02 04:13:33;;;;;;;32.30;15.80;;;;;;;17.53;31.86;102596.38;5109954;27;20023;-76
2022/03/02 04:15:59;;;;;;;33.13;15.90;;;;;;;16.93;32.54;102605.78;5111404;27;20543;-76
2022/03/02 04:18:24;;;;;;;35.50;16.00;;;;;;;16.93;32.45;102597.84;5111409;27;20699;-75
2022/03/02 04:20:52;;;;;;;34.67;15.87;;;;;;;17.59;31.87;102596.31;5128650;27;20538;-76
2022/03/02 04:23:18;;;;;;;36.17;15.47;;;;;;;17.17;32.60;102591.44;5110307;27;20019;-74
2022/03/02 04:25:43;;;;;;;33.57;16.43;;;;;;;17.97;31.19;102587.06;5111727;27;20035;-75
2022/03/02 04:28:08;;;;;;;32.47;16.27;;;;;;;17.93;31.17;102585.38;5110209;27;20023;-75
2022/03/02 04:30:34;;;;;;;34.63;15.33;;;;;;;17.86;31.47;102573.06;5110943;27;20041;-75
2022/03/02 04:32:59;;;;;;;31.33;15.40;;;;;;;17.53;31.75;102580.50;5111357;27;20030;-74
2022/03/02 04:35:25;;;;;;;31.70;15.83;;;;;;;17.45;32.37;102583.25;5110466;27;21308;-74
2022/03/02 04:37:50;;;;;;;33.37;15.97;;;;;;;17.74;31.56;102582.03;5109624;27;20478;-75
2022/03/02 04:40:16;;;;;;;36.80;16.73;;;;;;;17.93;31.10;102582.72;5100385;27;20405;-75
2022/03/02 04:42:42;;;;;;;36.37;16.47;;;;;;;17.65;31.98;102580.38;5104151;27;20071;-75
2022/03/02 04:45:08;;;;;;;30.00;15.23;;;;;;;17.93;31.34;102569.50;5105747;27;20076;-75
2022/03/02 04:47:33;;;;;;;33.97;16.27;;;;;;;17.85;31.18;102566.91;5108003;27;20019;-75
2022/03/02 04:49:59;;;;;;;30.30;15.17;;;;;;;17.69;31.39;102566.22;5107466;27;20022;-75
2022/03/02 04:52:24;;;;;;;34.63;16.23;;;;;;;17.72;31.22;102560.91;5110088;27;20031;-75
2022/03/02 04:55:09;;;;;;;37.57;15.63;;;;;;;17.65;31.90;102569.78;5110339;27;20023;-74
2022/03/02 04:57:44;;;;;;;31.30;14.97;;;;;;;17.71;31.91;102559.16;5110198;27;20037;-74
2022/03/02 05:00:16;;;;;;;38.37;16.73;;;;;;;18.04;31.33;102557.00;5128488;27;20501;-75
2022/03/02 05:02:42;;;;;;;28.33;13.53;;;;;;;17.43;32.15;102559.50;5108952;27;20030;-74
2022/03/02 05:05:12;;;;;;;35.90;15.97;;;;;;;17.27;32.45;102556.13;5109504;27;20045;-74
2022/03/02 05:07:38;;;;;;;36.63;16.33;;;;;;;17.12;32.43;102559.81;5129220;27;20046;-74
2022/03/02 05:10:06;;;;;;;34.20;14.73;;;;;;;17.42;32.30;102557.72;5108598;28;20466;-74
2022/03/02 05:12:31;;;;;;;31.53;14.60;;;;;;;17.59;31.52;102561.94;5110069;27;20147;-74
2022/03/02 05:14:57;;;;;;;34.93;14.50;;;;;;;17.87;31.09;102558.94;5111678;27;20019;-74
2022/03/02 05:17:23;;;;;;;31.83;14.73;;;;;;;17.66;31.67;102563.63;5108564;27;20627;-74
2022/03/02 05:19:49;;;;;;;36.47;14.23;;;;;;;17.29;31.75;102561.41;5123730;27;20150;-75
2022/03/02 05:22:14;;;;;;;33.13;15.13;;;;;;;16.54;33.29;102561.19;5109223;28;20039;-75
2022/03/02 05:24:40;;;;;;;32.50;16.00;;;;;;;17.06;32.37;102559.00;5109415;28;20126;-74
2022/03/02 05:27:07;;;;;;;33.03;15.93;;;;;;;16.77;32.97;102562.75;5111168;28;20023;-75
2022/03/02 05:29:33;;;;;;;33.00;15.27;;;;;;;17.38;32.26;102557.75;5085103;28;20041;-74
2022/03/02 05:31:58;;;;;;;30.20;15.00;;;;;;;17.03;32.32;102559.88;5110640;28;20023;-74
2022/03/02 05:34:24;;;;;;;32.83;15.30;;;;;;;17.46;31.61;102554.16;5109896;28;20278;-74
2022/03/02 05:36:49;;;;;;;34.23;15.47;;;;;;;17.98;31.46;102551.75;5107266;28;20054;-75
2022/03/02 05:39:15;;;;;;;33.37;15.80;;;;;;;17.76;31.31;102554.69;5126983;27;20091;-75
2022/03/02 05:41:40;;;;;;;31.33;15.07;;;;;;;17.48;31.64;102550.63;5129930;28;20023;-75
2022/03/02 05:44:07;;;;;;;33.33;15.63;;;;;;;17.51;31.95;102551.44;5110662;28;20053;-74
2022/03/02 05:46:36;;;;;;;31.77;14.87;;;;;;;17.93;31.29;102548.34;5110646;28;20031;-74
2022/03/02 05:49:03;;;;;;;31.00;15.67;;;;;;;17.75;31.65;102547.63;5108584;28;20074;-74
2022/03/02 05:51:30;;;;;;;33.37;15.07;;;;;;;18.03;30.79;102549.94;5106636;28;20058;-74
2022/03/02 05:53:56;;;;;;;34.73;15.20;;;;;;;17.67;31.66;102562.72;5106751;28;20012;-74
2022/03/02 05:56:23;;;;;;;39.60;16.33;;;;;;;17.68;31.20;102564.50;5103941;28;20028;-74
2022/03/02 05:58:48;;;;;;;41.73;16.67;;;;;;;18.03;30.88;102560.53;5105695;28;20143;-75
2022/03/02 06:01:14;;;;;;;41.73;16.67;;;;;;;17.74;31.39;102553.81;5100508;28;20015;-74
2022/03/02 06:03:39;;;;;;;32.80;15.83;;;;;;;17.26;31.84;102566.72;5104788;28;20114;-74
2022/03/02 06:06:05;;;;;;;33.37;15.83;;;;;;;18.21;30.71;102559.38;5103088;28;20479;-74
2022/03/02 06:08:30;;;;;;;33.73;15.80;;;;;;;17.91;31.27;102556.25;5109132;28;20024;-74
2022/03/02 06:10:56;;;;;;;32.47;14.97;;;;;;;18.04;31.33;102556.09;5108931;28;20098;-75
2022/03/02 06:13:21;;;;;;;30.47;14.83;;;;;;;18.19;31.05;102561.19;5108295;28;20031;-75
2022/03/02 06:15:47;;;;;;;30.23;15.67;;;;;;;18.59;30.46;102559.69;5109141;28;20016;-75
2022/03/02 06:18:13;;;;;;;33.83;15.40;;;;;;;18.35;30.49;102553.88;5106552;28;20369;-75
2022/03/02 06:20:42;;;;;;;29.17;14.13;;;;;;;17.91;31.92;102558.00;5105718;28;20076;-75
2022/03/02 06:23:08;;;;;;;30.67;15.23;;;;;;;17.67;32.05;102557.44;5108446;28;20019;-74
2022/03/02 06:25:34;;;;;;;33.93;15.80;;;;;;;18.08;31.25;102558.69;5101512;28;20065;-75
2022/03/02 06:27:59;;;;;;;36.90;15.77;;;;;;;18.10;31.05;102559.53;5107559;28;20564;-74
2022/03/02 06:30:25;;;;;;;34.37;14.27;;;;;;;17.19;32.58;102570.34;5106520;27;20034;-75
2022/03/02 06:32:50;;;;;;;37.10;15.60;;;;;;;17.18;32.15;102569.44;5110469;27;20016;-75
2022/03/02 06:35:15;;;;;;;34.33;15.50;;;;;;;17.40;31.69;102562.16;5127547;27;20065;-74
2022/03/02 06:37:41;;;;;;;33.77;14.70;;;;;;;16.49;32.82;102567.38;5104978;27;20024;-74
2022/03/02 06:40:09;;;;;;;31.30;15.10;;;;;;;16.57;33.21;102570.84;5110083;27;20359;-75
2022/03/02 06:43:02;;;;;;;35.03;15.13;;;;;;;17.33;31.92;102578.97;5108140;27;20109;-75
2022/03/02 06:45:58;;;;;;;34.50;15.73;;;;;;;17.30;32.25;102568.44;5110545;27;20466;-75
2022/03/02 06:48:32;;;;;;;32.23;13.97;;;;;;;16.81;32.92;102577.66;5105709;27;20137;-74
2022/03/02 06:51:00;;;;;;;34.23;15.47;;;;;;;17.12;32.35;102575.66;5108825;27;20121;-74
2022/03/02 06:53:37;;;;;;;29.60;14.77;;;;;;;17.41;31.97;102590.34;5110103;27;20486;-74
2022/03/02 06:56:07;;;;;;;28.00;13.73;;;;;;;17.53;31.64;102584.06;5111865;27;20098;-74
2022/03/02 06:59:02;;;;;;;32.87;15.93;;;;;;;17.48;31.40;102585.00;5105433;27;20027;-74
2022/03/02 07:01:31;;;;;;;31.57;14.63;;;;;;;16.61;33.08;102589.28;5086060;27;20483;-74
2022/03/02 07:03:59;;;;;;;32.13;15.43;;;;;;;16.69;32.65;102589.22;5103826;27;20106;-75
2022/03/02 07:06:28;;;;;;;28.53;13.63;;;;;;;16.83;31.99;102582.94;5106053;27;20709;-74
2022/03/02 07:08:54;;;;;;;31.40;14.50;;;;;;;15.95;33.44;102579.13;5105178;27;20110;-74
2022/03/02 07:11:21;;;;;;;33.37;15.67;;;;;;;17.00;32.06;102581.06;5106144;28;20084;-74
2022/03/02 07:13:48;;;;;;;30.83;13.80;;;;;;;16.79;31.81;102576.81;5111566;27;20027;-74
2022/03/02 07:16:21;;;;;;;29.37;13.33;;;;;;;17.76;30.79;102583.78;5108410;27;20087;-75
2022/03/02 07:18:46;;;;;;;;;;;;;;;17.85;30.57;102577.47;5113481;27;20031;-74
2022/03/02 07:21:14;;;;;;;33.63;14.23;;;;;;;18.33;29.84;102579.50;5125690;27;20071;-74
2022/03/02 07:24:14;;;;;;;33.07;15.03;;;;;;;17.59;30.83;102585.75;5106629;27;20051;-74
2022/03/02 07:26:43;;;;;;;31.47;14.60;;;;;;;18.56;29.72;102579.16;5120397;27;20047;-75
2022/03/02 07:29:10;;;;;;;30.40;14.67;;;;;;;17.98;30.75;102578.22;5125499;27;20497;-75
2022/03/02 07:31:35;;;;;;;32.63;15.93;;;;;;;18.18;30.48;102575.31;5112717;27;20023;-75
2022/03/02 07:34:02;;;;;;;30.90;16.87;;;;;;;16.77;31.78;102576.84;5111929;27;20037;-75
2022/03/02 07:36:27;;;;;;;28.43;12.80;;;;;;;18.20;30.45;102578.78;5113021;27;20155;-75
2022/03/02 07:38:53;;;;;;;32.17;15.30;;;;;;;18.02;30.43;102579.94;5112722;27;20069;-75
2022/03/02 07:41:18;;;;;;;34.17;15.17;;;;;;;19.38;28.85;102577.72;5113670;27;20026;-74
2022/03/02 07:43:46;;;;;;;29.43;14.50;;;;;;;19.91;28.10;102571.41;5104809;27;20435;-74
2022/03/02 07:46:12;;;;;;;30.63;14.47;;;;;;;19.99;28.02;102580.09;5112194;27;20042;-74
2022/03/02 07:48:38;;;;;;;29.53;13.90;;;;;;;20.02;27.75;102580.00;5106442;27;20027;-74
2022/03/02 07:51:08;;;;;;;30.83;14.63;;;;;;;19.57;27.51;102578.25;5113092;27;20383;-75
2022/03/02 07:53:40;;;;;;;28.17;13.60;;;;;;;19.06;28.42;102589.81;5099795;28;20028;-74
2022/03/02 07:56:08;;;;;;;28.15;14.02;;;;;;;18.32;29.31;102588.34;5131112;27;20520;-74
2022/03/02 07:58:38;;;;;;;27.43;14.17;;;;;;;18.65;28.98;102591.38;5106799;27;20019;-74
2022/03/02 08:01:03;;;;;;;31.30;14.40;;;;;;;18.69;28.35;102595.72;5113305;27;20019;-74
2022/03/02 08:03:30;;;;;;;32.23;15.03;;;;;;;17.33;30.37;102600.13;5114348;27;20528;-74
2022/03/02 08:06:02;;;;;;;30.37;14.17;;;;;;;17.51;30.89;102587.59;5111482;27;20034;-74
2022/03/02 08:08:28;;;;;;;30.23;14.77;;;;;;;17.78;30.12;102589.91;5103994;27;20462;-76
2022/03/02 08:10:53;;;;;;;30.53;14.10;;;;;;;16.78;31.58;102588.25;5110124;27;20280;-76
2022/03/02 08:13:19;;;;;;;37.13;16.13;;;;;;;18.33;28.79;102583.91;5105919;28;20027;-73
2022/03/02 08:15:44;;;;;;;29.30;14.50;;;;;;;18.05;29.88;102585.22;5093714;28;20078;-73
2022/03/02 08:18:10;;;;;;;28.23;13.83;;;;;;;17.60;30.04;102587.50;5100871;27;20051;-74
2022/03/02 08:20:44;;;;;;;32.60;14.43;;;;;;;18.12;29.68;102578.94;5126864;27;20031;-75
2022/03/02 08:23:10;;;;;;;31.33;14.37;;;;;;;17.95;29.31;102583.56;5110588;27;20402;-74
2022/03/02 08:25:36;;;;;;;29.50;14.33;;;;;;;17.94;29.13;102585.34;5108924;27;20042;-75
2022/03/02 08:28:07;;;;;;;27.37;14.27;;;;;;;17.46;30.07;102591.16;5097543;27;20023;-75
2022/03/02 08:30:33;;;;;;;31.13;13.73;;;;;;;16.43;31.69;102598.19;5123820;27;20028;-75
2022/03/02 08:33:00;;;;;;;28.77;13.30;;;;;;;16.13;32.44;102590.44;5093047;28;20126;-74
2022/03/02 08:35:30;;;;;;;28.17;12.23;;;;;;;17.67;29.94;102585.63;5104076;28;20023;-75
2022/03/02 08:37:56;;;;;;;29.57;14.77;;;;;;;17.79;29.60;102583.72;5108353;28;20028;-75
2022/03/02 08:40:21;;;;;;;29.37;13.73;;;;;;;18.45;28.77;102591.66;5098561;27;20528;-74
2022/03/02 08:42:49;;;;;;;30.97;13.30;;;;;;;17.79;29.13;102583.72;5129085;27;20030;-75
2022/03/02 08:45:14;;;;;;;30.53;14.70;;;;;;;18.09;29.02;102576.31;5109762;27;20518;-75
2022/03/02 08:47:40;;;;;;;29.87;12.37;;;;;;;17.91;29.03;102572.13;5111810;27;20023;-75
2022/03/02 08:50:06;;;;;;;26.07;12.77;;;;;;;18.02;29.02;102566.69;5110934;27;20574;-75
2022/03/02 08:52:33;;;;;;;26.87;12.17;;;;;;;19.00;27.15;102568.75;5100287;28;20073;-74
2022/03/02 08:55:06;;;;;;;23.83;11.27;;;;;;;17.55;27.67;102571.66;5110023;27;20034;-74
2022/03/02 08:57:39;;;;;;;23.83;11.15;;;;;;;18.03;26.53;102567.59;5108016;28;20107;-74
2022/03/02 09:00:10;;;;;;;24.60;10.57;;;;;;;17.75;26.17;102560.88;5100101;27;20023;-75
2022/03/02 09:02:37;;;;;;;22.57;10.63;;;;;;;18.73;25.03;102562.97;5107785;27;20015;-75
2022/03/02 09:05:05;;;;;;;22.63;10.47;;;;;;;18.17;25.81;102559.47;5128246;27;20496;-75
2022/03/02 09:07:31;;;;;;;23.60;11.03;;;;;;;18.88;25.14;102556.59;5102532;28;20135;-74
2022/03/02 09:09:58;;;;;;;20.03;9.90;;;;;;;19.63;24.06;102551.63;5103899;28;20024;-75
2022/03/02 09:12:24;;;;;;;17.97;9.17;;;;;;;19.20;23.81;102551.59;5112346;27;20542;-74
2022/03/02 09:14:49;;;;;;;20.97;9.30;;;;;;;17.22;26.60;102565.00;5109090;27;20375;-75
2022/03/02 09:17:24;;;;;;;20.20;9.97;;;;;;;18.42;25.20;102558.19;5095454;27;20019;-75
2022/03/02 09:19:50;;;;;;;20.07;9.60;;;;;;;18.24;24.81;102561.97;5098178;28;20493;-75
2022/03/02 09:22:15;;;;;;;21.77;10.90;;;;;;;19.69;23.36;102550.63;5100970;28;20040;-73
2022/03/02 09:24:43;;;;;;;17.77;8.80;;;;;;;19.64;22.78;102553.34;5110876;28;20436;-74
2022/03/02 09:27:09;;;;;;;17.67;8.37;;;;;;;19.37;22.74;102552.16;5107838;28;20068;-74
2022/03/02 09:29:38;;;;;;;17.93;9.77;;;;;;;19.71;22.56;102551.44;5129417;28;20025;-74
2022/03/02 09:32:07;;;;;;;18.47;8.67;;;;;;;20.26;22.34;102556.47;5110768;28;20117;-75
2022/03/02 09:34:33;;;;;;;22.77;9.73;;;;;;;21.43;21.26;102549.91;5112122;28;20099;-75
2022/03/02 09:37:01;;;;;;;20.77;9.87;;;;;;;21.62;21.38;102550.28;5112288;28;20363;-76
2022/03/02 09:39:27;;;;;;;21.50;9.70;;;;;;;22.20;19.79;102545.84;5101473;28;20046;-75
2022/03/02 09:42:26;;;;;;;21.58;9.23;;;;;;;21.60;20.31;102546.81;5111830;28;20481;-76
2022/03/02 09:45:03;;;;;;;20.35;9.48;;;;;;;23.18;18.85;102537.28;5096089;28;20482;-76
2022/03/02 09:47:40;;;;;;;19.70;9.27;;;;;;;23.57;18.38;102542.03;5107511;28;20023;-76
2022/03/02 09:50:09;;;;;;;18.13;9.57;;;;;;;23.91;17.96;102534.56;5129878;28;20038;-76
2022/03/02 09:52:38;;;;;;;16.73;8.93;;;;;;;23.29;18.15;102532.41;5109812;28;20612;-75
2022/03/02 09:55:09;;;;;;;19.83;9.50;;;;;;;23.91;17.82;102534.56;5095511;28;20028;-75
2022/03/02 09:57:42;;;;;;;17.77;9.40;;;;;;;23.99;17.04;102538.66;5094010;28;20176;-75
2022/03/02 10:00:09;;;;;;;19.05;10.48;;;;;;;23.09;18.48;102546.41;5109737;28;20386;-75
2022/03/02 10:02:43;;;;;;;19.30;9.75;;;;;;;23.76;17.96;102536.00;5109017;28;20030;-75
2022/03/02 10:05:18;;;;;;;19.48;10.63;;;;;;;24.57;17.81;102534.53;5093656;27;20028;-75
2022/03/02 10:07:54;;;;;;;21.55;10.85;;;;;;;23.32;18.71;102537.63;5115218;27;20106;-75
2022/03/02 10:10:23;;;;;;;17.70;10.38;;;;;;;23.89;18.37;102526.59;5110502;27;20023;-74
2022/03/02 10:12:54;;;;;;;18.85;10.52;;;;;;;22.74;20.12;102535.22;5107148;28;20032;-76
2022/03/02 10:15:20;;;;;;;20.73;10.48;;;;;;;22.62;19.82;102538.31;5114657;27;20477;-75
2022/03/02 10:17:48;;;;;;;24.08;11.38;;;;;;;21.76;21.20;102526.81;5102769;27;20022;-75
2022/03/02 10:20:26;;;;;;;25.88;10.05;;;;;;;22.79;20.02;102538.59;5111004;27;20035;-75
2022/03/02 10:23:29;;;;;;;21.80;9.05;;;;;;;21.68;20.07;102531.50;5101322;27;20039;-76
2022/03/02 10:26:23;;;;;;;24.23;10.05;;;;;;;22.37;20.26;102525.81;5103219;27;20428;-75
2022/03/02 10:29:03;;;;;;;19.05;10.38;;;;;;;21.79;20.17;102521.38;5100896;27;20027;-75
2022/03/02 10:31:54;;;;;;;21.48;10.52;;;;;;;23.16;19.19;102525.78;5108509;27;20056;-75
2022/03/02 10:34:32;;;;;;;20.47;9.70;;;;;;;22.60;20.24;102532.16;5107645;27;20482;-75
2022/03/02 10:37:08;;;;;;;20.48;10.13;;;;;;;23.25;19.39;102514.78;5131242;27;20023;-75
2022/03/02 10:39:51;;;;;;;19.55;9.18;;;;;;;23.97;19.31;102518.28;5106753;27;20031;-75
2022/03/02 10:42:37;;;;;;;;;;;;;;;24.32;18.75;102514.19;5111639;27;20068;-75
2022/03/02 10:45:21;;;;;;;22.00;10.02;;;;;;;21.86;20.15;102517.63;5105385;28;19915;-75
2022/03/02 10:47:55;;;;;;;23.33;9.30;;;;;;;21.90;20.29;102510.41;5122527;27;20110;-75
2022/03/02 10:50:22;;;;;;;19.77;9.98;;;;;;;22.03;21.15;102509.09;5102076;27;20019;-75
2022/03/02 10:52:49;;;;;;;19.75;10.38;;;;;;;22.74;20.77;102508.56;5089647;28;20023;-74
2022/03/02 10:55:15;;;;;;;18.58;10.38;;;;;;;21.63;21.05;102506.81;5127260;27;20031;-74
2022/03/02 10:57:41;;;;;;;20.63;10.20;;;;;;;22.21;20.56;102509.41;5087242;27;20035;-74
2022/03/02 11:00:13;;;;;;;22.15;11.30;;;;;;;22.99;20.35;102503.22;5091385;27;20027;-75
2022/03/02 11:02:42;;;;;;;17.47;9.63;;;;;;;23.92;19.91;102506.91;5131244;27;20065;-74
2022/03/02 11:05:13;;;;;;;20.20;10.45;;;;;;;23.54;18.85;102494.13;5106686;27;20031;-74
2022/03/02 11:07:40;;;;;;;21.70;10.07;;;;;;;22.12;19.91;102509.72;5131284;27;20019;-74
2022/03/02 11:10:10;;;;;;;21.13;10.82;;;;;;;23.40;18.96;102502.66;5103125;27;20028;-75
2022/03/02 11:12:41;;;;;;;18.45;10.40;;;;;;;23.37;19.69;102500.13;5112741;27;20027;-74